Terminal Aerodrome Forecast
Issued by NWS Cleveland, OH

Home | Current Version | Previous Version | Text Only | Print | Product List | Glossary On
Versions: 1 2 3 4 5 6 7 8 9 10 11 12 13 14 15 16 17 18 19 20 21 22 23 24 25 26 27 28 29 30
000
FTUS41 KCLE 050540
TAFCLE
TAF
KCLE 050540Z 0506/0612 34006KT P6SM -SHRA BKN008 OVC012
      TEMPO 0506/0509 BKN004
     FM050900 02008KT 5SM BR BKN008 OVC012
     FM051400 02012KT P6SM SCT008 OVC012
     FM051800 02012G22KT P6SM SCT025 OVC035
     FM060000 36008KT P6SM BKN050
     FM060600 33004KT P6SM SCT050=

USA.gov is the U.S. government's official web portal to all federal, state and local government web resources and services.